sensor_id;sensor_type;location;lat;lon;timestamp;P1;durP1;ratioP1;P2;durP2;ratioP2
81908;SDS011;71372;43.514;1.512;2024-01-11T00:00:41;31.92;;;15.18;;
81908;SDS011;71372;43.514;1.512;2024-01-11T00:03:07;29.90;;;14.82;;
81908;SDS011;71372;43.514;1.512;2024-01-11T00:05:33;30.08;;;14.90;;
81908;SDS011;71372;43.514;1.512;2024-01-11T00:07:59;34.17;;;15.57;;
81908;SDS011;71372;43.514;1.512;2024-01-11T00:10:25;29.60;;;15.32;;
81908;SDS011;71372;43.514;1.512;2024-01-11T00:12:51;28.85;;;13.95;;
81908;SDS011;71372;43.514;1.512;2024-01-11T00:15:17;30.70;;;14.93;;
81908;SDS011;71372;43.514;1.512;2024-01-11T00:17:43;30.17;;;14.85;;
81908;SDS011;71372;43.514;1.512;2024-01-11T00:20:09;29.17;;;15.23;;
81908;SDS011;71372;43.514;1.512;2024-01-11T00:22:36;30.35;;;14.80;;
81908;SDS011;71372;43.514;1.512;2024-01-11T00:25:02;29.73;;;15.30;;
81908;SDS011;71372;43.514;1.512;2024-01-11T00:27:29;28.55;;;14.73;;
81908;SDS011;71372;43.514;1.512;2024-01-11T00:29:55;31.05;;;14.00;;
81908;SDS011;71372;43.514;1.512;2024-01-11T00:32:21;32.70;;;14.95;;
81908;SDS011;71372;43.514;1.512;2024-01-11T00:34:47;31.83;;;14.77;;
81908;SDS011;71372;43.514;1.512;2024-01-11T00:37:13;31.50;;;14.40;;
81908;SDS011;71372;43.514;1.512;2024-01-11T00:39:39;28.25;;;15.05;;
81908;SDS011;71372;43.514;1.512;2024-01-11T00:42:05;30.88;;;14.55;;
81908;SDS011;71372;43.514;1.512;2024-01-11T00:44:31;32.35;;;16.25;;
81908;SDS011;71372;43.514;1.512;2024-01-11T00:46:58;29.95;;;13.85;;
81908;SDS011;71372;43.514;1.512;2024-01-11T00:49:24;30.58;;;14.50;;
81908;SDS011;71372;43.514;1.512;2024-01-11T00:51:50;31.33;;;14.68;;
81908;SDS011;71372;43.514;1.512;2024-01-11T00:54:16;32.53;;;14.80;;
81908;SDS011;71372;43.514;1.512;2024-01-11T00:56:42;29.83;;;14.70;;
81908;SDS011;71372;43.514;1.512;2024-01-11T00:59:08;30.52;;;13.68;;
81908;SDS011;71372;43.514;1.512;2024-01-11T01:01:34;30.77;;;14.27;;
81908;SDS011;71372;43.514;1.512;2024-01-11T01:03:59;30.00;;;14.50;;
81908;SDS011;71372;43.514;1.512;2024-01-11T01:06:25;29.10;;;14.48;;
81908;SDS011;71372;43.514;1.512;2024-01-11T01:08:51;31.95;;;13.80;;
81908;SDS011;71372;43.514;1.512;2024-01-11T01:11:17;27.98;;;13.80;;
81908;SDS011;71372;43.514;1.512;2024-01-11T01:13:43;31.52;;;15.27;;
81908;SDS011;71372;43.514;1.512;2024-01-11T01:16:09;30.88;;;14.30;;
81908;SDS011;71372;43.514;1.512;2024-01-11T01:18:35;31.08;;;14.18;;
81908;SDS011;71372;43.514;1.512;2024-01-11T01:21:01;33.95;;;15.10;;
81908;SDS011;71372;43.514;1.512;2024-01-11T01:23:27;30.40;;;14.38;;
81908;SDS011;71372;43.514;1.512;2024-01-11T01:25:53;31.80;;;14.93;;
81908;SDS011;71372;43.514;1.512;2024-01-11T01:28:19;33.42;;;15.40;;
81908;SDS011;71372;43.514;1.512;2024-01-11T01:30:44;27.63;;;12.90;;
81908;SDS011;71372;43.514;1.512;2024-01-11T01:33:10;27.52;;;12.63;;
81908;SDS011;71372;43.514;1.512;2024-01-11T01:35:36;28.58;;;13.73;;
81908;SDS011;71372;43.514;1.512;2024-01-11T01:38:02;32.35;;;15.45;;
81908;SDS011;71372;43.514;1.512;2024-01-11T01:40:29;24.30;;;12.13;;
81908;SDS011;71372;43.514;1.512;2024-01-11T01:42:59;25.65;;;12.60;;
81908;SDS011;71372;43.514;1.512;2024-01-11T01:45:28;29.35;;;13.65;;
81908;SDS011;71372;43.514;1.512;2024-01-11T01:47:55;44.30;;;13.48;;
81908;SDS011;71372;43.514;1.512;2024-01-11T01:50:21;30.63;;;14.35;;
81908;SDS011;71372;43.514;1.512;2024-01-11T01:52:47;29.05;;;13.48;;
81908;SDS011;71372;43.514;1.512;2024-01-11T01:55:14;31.70;;;14.75;;
81908;SDS011;71372;43.514;1.512;2024-01-11T01:57:41;30.98;;;13.85;;
81908;SDS011;71372;43.514;1.512;2024-01-11T02:00:10;27.42;;;12.98;;
81908;SDS011;71372;43.514;1.512;2024-01-11T02:02:37;31.58;;;14.30;;
81908;SDS011;71372;43.514;1.512;2024-01-11T02:05:05;29.75;;;14.40;;
81908;SDS011;71372;43.514;1.512;2024-01-11T02:07:32;34.33;;;14.98;;
81908;SDS011;71372;43.514;1.512;2024-01-11T02:09:58;30.05;;;14.07;;
81908;SDS011;71372;43.514;1.512;2024-01-11T02:12:25;33.05;;;14.65;;
81908;SDS011;71372;43.514;1.512;2024-01-11T02:14:53;27.38;;;12.85;;
81908;SDS011;71372;43.514;1.512;2024-01-11T02:17:19;26.08;;;12.52;;
81908;SDS011;71372;43.514;1.512;2024-01-11T02:19:45;27.45;;;12.48;;
81908;SDS011;71372;43.514;1.512;2024-01-11T02:22:17;28.10;;;12.65;;
81908;SDS011;71372;43.514;1.512;2024-01-11T02:24:54;24.77;;;11.30;;
81908;SDS011;71372;43.514;1.512;2024-01-11T02:27:20;26.88;;;12.73;;
81908;SDS011;71372;43.514;1.512;2024-01-11T02:29:45;31.85;;;13.00;;
81908;SDS011;71372;43.514;1.512;2024-01-11T02:32:11;30.83;;;13.35;;
81908;SDS011;71372;43.514;1.512;2024-01-11T02:34:38;25.95;;;12.70;;
81908;SDS011;71372;43.514;1.512;2024-01-11T02:37:04;31.25;;;14.07;;
81908;SDS011;71372;43.514;1.512;2024-01-11T02:39:31;26.13;;;11.80;;
81908;SDS011;71372;43.514;1.512;2024-01-11T02:41:57;27.15;;;12.45;;
81908;SDS011;71372;43.514;1.512;2024-01-11T02:44:24;25.27;;;12.10;;
81908;SDS011;71372;43.514;1.512;2024-01-11T02:46:50;26.90;;;11.52;;
81908;SDS011;71372;43.514;1.512;2024-01-11T02:49:16;26.60;;;12.50;;
81908;SDS011;71372;43.514;1.512;2024-01-11T02:51:42;26.38;;;12.77;;
81908;SDS011;71372;43.514;1.512;2024-01-11T02:54:08;25.88;;;11.75;;
81908;SDS011;71372;43.514;1.512;2024-01-11T02:56:34;27.17;;;12.85;;
81908;SDS011;71372;43.514;1.512;2024-01-11T02:59:00;26.45;;;12.77;;
81908;SDS011;71372;43.514;1.512;2024-01-11T03:01:26;27.73;;;12.73;;
81908;SDS011;71372;43.514;1.512;2024-01-11T03:03:52;26.70;;;12.95;;
81908;SDS011;71372;43.514;1.512;2024-01-11T03:06:18;29.63;;;12.68;;
81908;SDS011;71372;43.514;1.512;2024-01-11T03:08:47;28.45;;;12.98;;
81908;SDS011;71372;43.514;1.512;2024-01-11T03:11:14;29.63;;;13.90;;
81908;SDS011;71372;43.514;1.512;2024-01-11T03:13:40;29.63;;;14.23;;
81908;SDS011;71372;43.514;1.512;2024-01-11T03:16:06;31.77;;;14.63;;
81908;SDS011;71372;43.514;1.512;2024-01-11T03:18:32;29.27;;;13.25;;
81908;SDS011;71372;43.514;1.512;2024-01-11T03:20:58;32.85;;;14.30;;
81908;SDS011;71372;43.514;1.512;2024-01-11T03:23:24;37.25;;;15.70;;
81908;SDS011;71372;43.514;1.512;2024-01-11T03:25:49;31.15;;;15.07;;
81908;SDS011;71372;43.514;1.512;2024-01-11T03:28:15;30.30;;;14.35;;
81908;SDS011;71372;43.514;1.512;2024-01-11T03:30:42;29.88;;;14.23;;
81908;SDS011;71372;43.514;1.512;2024-01-11T03:33:09;31.85;;;13.75;;
81908;SDS011;71372;43.514;1.512;2024-01-11T03:35:35;32.15;;;14.52;;
81908;SDS011;71372;43.514;1.512;2024-01-11T03:38:02;29.60;;;14.05;;
81908;SDS011;71372;43.514;1.512;2024-01-11T03:40:28;32.25;;;14.88;;
81908;SDS011;71372;43.514;1.512;2024-01-11T03:42:54;33.75;;;15.48;;
81908;SDS011;71372;43.514;1.512;2024-01-11T03:45:20;31.60;;;15.98;;
81908;SDS011;71372;43.514;1.512;2024-01-11T03:47:46;29.42;;;13.73;;
81908;SDS011;71372;43.514;1.512;2024-01-11T03:50:12;31.67;;;14.75;;
81908;SDS011;71372;43.514;1.512;2024-01-11T03:52:39;34.88;;;16.23;;
81908;SDS011;71372;43.514;1.512;2024-01-11T03:55:05;32.70;;;14.40;;
81908;SDS011;71372;43.514;1.512;2024-01-11T03:57:31;28.67;;;13.73;;
81908;SDS011;71372;43.514;1.512;2024-01-11T03:59:57;31.13;;;14.02;;
81908;SDS011;71372;43.514;1.512;2024-01-11T04:02:24;32.72;;;14.77;;
81908;SDS011;71372;43.514;1.512;2024-01-11T04:04:50;33.95;;;14.68;;
81908;SDS011;71372;43.514;1.512;2024-01-11T04:07:16;36.03;;;16.08;;
81908;SDS011;71372;43.514;1.512;2024-01-11T04:09:42;35.45;;;15.18;;
81908;SDS011;71372;43.514;1.512;2024-01-11T04:12:08;32.17;;;15.35;;
81908;SDS011;71372;43.514;1.512;2024-01-11T04:14:37;36.47;;;15.60;;
81908;SDS011;71372;43.514;1.512;2024-01-11T04:17:05;33.92;;;14.48;;
81908;SDS011;71372;43.514;1.512;2024-01-11T04:19:31;32.90;;;14.10;;
81908;SDS011;71372;43.514;1.512;2024-01-11T04:21:57;33.85;;;13.75;;
81908;SDS011;71372;43.514;1.512;2024-01-11T04:24:23;30.20;;;12.52;;
81908;SDS011;71372;43.514;1.512;2024-01-11T04:26:49;29.70;;;13.75;;
81908;SDS011;71372;43.514;1.512;2024-01-11T04:29:14;32.15;;;13.88;;
81908;SDS011;71372;43.514;1.512;2024-01-11T04:31:40;27.77;;;13.57;;
81908;SDS011;71372;43.514;1.512;2024-01-11T04:34:06;28.25;;;12.73;;
81908;SDS011;71372;43.514;1.512;2024-01-11T04:36:39;27.25;;;13.32;;
81908;SDS011;71372;43.514;1.512;2024-01-11T04:39:05;31.30;;;13.55;;
81908;SDS011;71372;43.514;1.512;2024-01-11T04:41:33;28.67;;;12.68;;
81908;SDS011;71372;43.514;1.512;2024-01-11T04:44:02;29.50;;;12.88;;
81908;SDS011;71372;43.514;1.512;2024-01-11T04:46:28;25.15;;;11.15;;
81908;SDS011;71372;43.514;1.512;2024-01-11T04:48:54;24.13;;;10.73;;
81908;SDS011;71372;43.514;1.512;2024-01-11T04:51:20;21.65;;;10.27;;
81908;SDS011;71372;43.514;1.512;2024-01-11T04:53:46;28.67;;;11.43;;
81908;SDS011;71372;43.514;1.512;2024-01-11T04:56:15;22.00;;;9.93;;
81908;SDS011;71372;43.514;1.512;2024-01-11T04:58:42;19.00;;;9.13;;
81908;SDS011;71372;43.514;1.512;2024-01-11T05:01:12;20.48;;;9.10;;
81908;SDS011;71372;43.514;1.512;2024-01-11T05:03:39;20.58;;;10.10;;
81908;SDS011;71372;43.514;1.512;2024-01-11T05:06:05;17.35;;;9.05;;
81908;SDS011;71372;43.514;1.512;2024-01-11T05:08:31;19.35;;;9.85;;
81908;SDS011;71372;43.514;1.512;2024-01-11T05:10:57;20.92;;;10.07;;
81908;SDS011;71372;43.514;1.512;2024-01-11T05:13:23;20.70;;;9.63;;
81908;SDS011;71372;43.514;1.512;2024-01-11T05:15:49;18.25;;;9.50;;
81908;SDS011;71372;43.514;1.512;2024-01-11T05:18:15;20.48;;;9.57;;
81908;SDS011;71372;43.514;1.512;2024-01-11T05:20:41;20.40;;;9.85;;
81908;SDS011;71372;43.514;1.512;2024-01-11T05:23:07;19.85;;;9.52;;
81908;SDS011;71372;43.514;1.512;2024-01-11T05:25:34;20.50;;;9.45;;
81908;SDS011;71372;43.514;1.512;2024-01-11T05:28:00;21.58;;;10.60;;
81908;SDS011;71372;43.514;1.512;2024-01-11T05:30:27;21.80;;;10.38;;
81908;SDS011;71372;43.514;1.512;2024-01-11T05:32:53;19.50;;;9.95;;
81908;SDS011;71372;43.514;1.512;2024-01-11T05:35:20;21.38;;;9.70;;
81908;SDS011;71372;43.514;1.512;2024-01-11T05:37:46;19.45;;;9.68;;
81908;SDS011;71372;43.514;1.512;2024-01-11T05:40:12;18.35;;;9.40;;
81908;SDS011;71372;43.514;1.512;2024-01-11T05:42:39;17.35;;;9.02;;
81908;SDS011;71372;43.514;1.512;2024-01-11T05:45:05;18.25;;;8.80;;
81908;SDS011;71372;43.514;1.512;2024-01-11T05:47:31;17.35;;;9.35;;
81908;SDS011;71372;43.514;1.512;2024-01-11T05:49:57;21.30;;;9.88;;
81908;SDS011;71372;43.514;1.512;2024-01-11T05:52:23;19.42;;;9.55;;
81908;SDS011;71372;43.514;1.512;2024-01-11T05:54:49;25.70;;;9.23;;
81908;SDS011;71372;43.514;1.512;2024-01-11T05:57:15;18.70;;;9.38;;
81908;SDS011;71372;43.514;1.512;2024-01-11T05:59:45;18.08;;;9.52;;
81908;SDS011;71372;43.514;1.512;2024-01-11T06:02:11;20.27;;;8.82;;
81908;SDS011;71372;43.514;1.512;2024-01-11T06:04:39;17.67;;;8.75;;
81908;SDS011;71372;43.514;1.512;2024-01-11T06:07:05;21.25;;;9.77;;
81908;SDS011;71372;43.514;1.512;2024-01-11T06:09:31;19.17;;;9.18;;
81908;SDS011;71372;43.514;1.512;2024-01-11T06:11:57;19.13;;;9.48;;
81908;SDS011;71372;43.514;1.512;2024-01-11T06:14:23;17.70;;;8.93;;
81908;SDS011;71372;43.514;1.512;2024-01-11T06:16:49;20.90;;;10.32;;
81908;SDS011;71372;43.514;1.512;2024-01-11T06:19:15;19.50;;;8.93;;
81908;SDS011;71372;43.514;1.512;2024-01-11T06:21:41;21.33;;;9.63;;
81908;SDS011;71372;43.514;1.512;2024-01-11T06:24:07;20.02;;;10.68;;
81908;SDS011;71372;43.514;1.512;2024-01-11T06:26:33;19.33;;;9.45;;
81908;SDS011;71372;43.514;1.512;2024-01-11T06:28:59;20.00;;;9.70;;
81908;SDS011;71372;43.514;1.512;2024-01-11T06:31:24;22.65;;;10.30;;
81908;SDS011;71372;43.514;1.512;2024-01-11T06:33:51;21.33;;;10.48;;
81908;SDS011;71372;43.514;1.512;2024-01-11T06:36:17;21.90;;;11.23;;
81908;SDS011;71372;43.514;1.512;2024-01-11T06:38:43;24.17;;;10.73;;
81908;SDS011;71372;43.514;1.512;2024-01-11T06:41:09;22.20;;;10.77;;
81908;SDS011;71372;43.514;1.512;2024-01-11T06:43:35;19.77;;;10.38;;
81908;SDS011;71372;43.514;1.512;2024-01-11T06:46:04;23.25;;;10.65;;
81908;SDS011;71372;43.514;1.512;2024-01-11T06:48:30;19.77;;;10.43;;
81908;SDS011;71372;43.514;1.512;2024-01-11T06:50:57;23.00;;;10.50;;
81908;SDS011;71372;43.514;1.512;2024-01-11T06:53:23;20.23;;;9.90;;
81908;SDS011;71372;43.514;1.512;2024-01-11T06:55:49;21.13;;;9.82;;
81908;SDS011;71372;43.514;1.512;2024-01-11T06:58:15;19.55;;;9.77;;
81908;SDS011;71372;43.514;1.512;2024-01-11T07:00:41;20.75;;;10.05;;
81908;SDS011;71372;43.514;1.512;2024-01-11T07:03:11;19.35;;;9.45;;
81908;SDS011;71372;43.514;1.512;2024-01-11T07:05:37;20.48;;;10.85;;
81908;SDS011;71372;43.514;1.512;2024-01-11T07:08:03;20.05;;;9.95;;
81908;SDS011;71372;43.514;1.512;2024-01-11T07:10:29;22.85;;;10.57;;
81908;SDS011;71372;43.514;1.512;2024-01-11T07:12:55;21.77;;;10.73;;
81908;SDS011;71372;43.514;1.512;2024-01-11T07:15:21;21.50;;;10.70;;
81908;SDS011;71372;43.514;1.512;2024-01-11T07:17:47;22.85;;;10.52;;
81908;SDS011;71372;43.514;1.512;2024-01-11T07:20:14;20.17;;;10.32;;
81908;SDS011;71372;43.514;1.512;2024-01-11T07:22:42;18.02;;;10.18;;
81908;SDS011;71372;43.514;1.512;2024-01-11T07:25:08;18.90;;;10.02;;
81908;SDS011;71372;43.514;1.512;2024-01-11T07:27:34;18.30;;;10.27;;
81908;SDS011;71372;43.514;1.512;2024-01-11T07:30:01;23.17;;;10.25;;
81908;SDS011;71372;43.514;1.512;2024-01-11T07:32:28;19.15;;;9.65;;
81908;SDS011;71372;43.514;1.512;2024-01-11T07:34:54;22.17;;;11.00;;
81908;SDS011;71372;43.514;1.512;2024-01-11T07:37:20;23.38;;;11.35;;
81908;SDS011;71372;43.514;1.512;2024-01-11T07:39:46;24.83;;;11.70;;
81908;SDS011;71372;43.514;1.512;2024-01-11T07:42:13;25.10;;;12.13;;
81908;SDS011;71372;43.514;1.512;2024-01-11T07:44:39;29.38;;;13.73;;
81908;SDS011;71372;43.514;1.512;2024-01-11T07:47:05;24.88;;;11.50;;
81908;SDS011;71372;43.514;1.512;2024-01-11T07:49:32;22.83;;;11.68;;
81908;SDS011;71372;43.514;1.512;2024-01-11T07:51:58;23.52;;;12.20;;
81908;SDS011;71372;43.514;1.512;2024-01-11T07:54:23;24.08;;;13.07;;
81908;SDS011;71372;43.514;1.512;2024-01-11T07:56:49;28.05;;;12.93;;
81908;SDS011;71372;43.514;1.512;2024-01-11T07:59:15;24.70;;;12.23;;
81908;SDS011;71372;43.514;1.512;2024-01-11T08:01:41;28.00;;;13.65;;
81908;SDS011;71372;43.514;1.512;2024-01-11T08:04:07;30.45;;;13.63;;
81908;SDS011;71372;43.514;1.512;2024-01-11T08:06:33;31.80;;;14.32;;
81908;SDS011;71372;43.514;1.512;2024-01-11T08:08:59;27.83;;;13.80;;
81908;SDS011;71372;43.514;1.512;2024-01-11T08:11:25;29.65;;;13.27;;
81908;SDS011;71372;43.514;1.512;2024-01-11T08:13:51;32.90;;;14.50;;
81908;SDS011;71372;43.514;1.512;2024-01-11T08:16:20;35.25;;;16.02;;
81908;SDS011;71372;43.514;1.512;2024-01-11T08:18:46;43.95;;;18.10;;
81908;SDS011;71372;43.514;1.512;2024-01-11T08:21:14;41.95;;;17.17;;
81908;SDS011;71372;43.514;1.512;2024-01-11T08:23:40;84.03;;;25.65;;
81908;SDS011;71372;43.514;1.512;2024-01-11T08:26:13;40.08;;;16.50;;
81908;SDS011;71372;43.514;1.512;2024-01-11T08:28:40;37.33;;;16.77;;
81908;SDS011;71372;43.514;1.512;2024-01-11T08:31:06;34.92;;;16.38;;
81908;SDS011;71372;43.514;1.512;2024-01-11T08:33:33;26.25;;;13.68;;
81908;SDS011;71372;43.514;1.512;2024-01-11T08:35:59;32.25;;;14.65;;
81908;SDS011;71372;43.514;1.512;2024-01-11T08:38:25;30.17;;;14.63;;
81908;SDS011;71372;43.514;1.512;2024-01-11T08:40:51;26.98;;;13.65;;
81908;SDS011;71372;43.514;1.512;2024-01-11T08:43:17;30.02;;;13.30;;
81908;SDS011;71372;43.514;1.512;2024-01-11T08:45:43;25.77;;;12.95;;
81908;SDS011;71372;43.514;1.512;2024-01-11T08:48:14;27.00;;;12.65;;
81908;SDS011;71372;43.514;1.512;2024-01-11T08:50:41;34.78;;;14.75;;
81908;SDS011;71372;43.514;1.512;2024-01-11T08:53:07;31.10;;;13.27;;
81908;SDS011;71372;43.514;1.512;2024-01-11T08:55:33;32.90;;;14.23;;
81908;SDS011;71372;43.514;1.512;2024-01-11T08:57:59;38.17;;;17.02;;
81908;SDS011;71372;43.514;1.512;2024-01-11T09:00:26;33.28;;;15.40;;
81908;SDS011;71372;43.514;1.512;2024-01-11T09:02:52;29.00;;;14.57;;
81908;SDS011;71372;43.514;1.512;2024-01-11T09:05:18;24.92;;;13.10;;
81908;SDS011;71372;43.514;1.512;2024-01-11T09:07:45;22.35;;;11.88;;
81908;SDS011;71372;43.514;1.512;2024-01-11T09:10:12;21.85;;;11.13;;
81908;SDS011;71372;43.514;1.512;2024-01-11T09:12:38;20.98;;;11.05;;
81908;SDS011;71372;43.514;1.512;2024-01-11T09:15:04;21.65;;;11.60;;
81908;SDS011;71372;43.514;1.512;2024-01-11T09:17:30;22.55;;;11.25;;
81908;SDS011;71372;43.514;1.512;2024-01-11T09:19:56;19.10;;;10.45;;
81908;SDS011;71372;43.514;1.512;2024-01-11T09:22:22;23.17;;;11.57;;
81908;SDS011;71372;43.514;1.512;2024-01-11T09:24:48;20.38;;;11.55;;
81908;SDS011;71372;43.514;1.512;2024-01-11T09:27:14;17.00;;;9.10;;
81908;SDS011;71372;43.514;1.512;2024-01-11T09:29:43;15.00;;;8.18;;
81908;SDS011;71372;43.514;1.512;2024-01-11T09:32:10;16.77;;;8.93;;
81908;SDS011;71372;43.514;1.512;2024-01-11T09:34:37;20.88;;;8.95;;
81908;SDS011;71372;43.514;1.512;2024-01-11T09:37:03;12.18;;;7.05;;
81908;SDS011;71372;43.514;1.512;2024-01-11T09:39:30;14.55;;;7.28;;
81908;SDS011;71372;43.514;1.512;2024-01-11T09:42:00;13.98;;;8.20;;
81908;SDS011;71372;43.514;1.512;2024-01-11T09:44:32;13.63;;;7.55;;
81908;SDS011;71372;43.514;1.512;2024-01-11T09:46:59;13.02;;;7.70;;
81908;SDS011;71372;43.514;1.512;2024-01-11T09:49:27;12.88;;;7.78;;
81908;SDS011;71372;43.514;1.512;2024-01-11T09:51:56;14.85;;;8.15;;
81908;SDS011;71372;43.514;1.512;2024-01-11T09:54:23;16.85;;;9.18;;
81908;SDS011;71372;43.514;1.512;2024-01-11T09:56:50;13.55;;;7.95;;
81908;SDS011;71372;43.514;1.512;2024-01-11T09:59:35;12.30;;;6.63;;
81908;SDS011;71372;43.514;1.512;2024-01-11T10:02:02;13.55;;;7.15;;
81908;SDS011;71372;43.514;1.512;2024-01-11T10:04:28;13.93;;;7.65;;
81908;SDS011;71372;43.514;1.512;2024-01-11T10:06:54;11.70;;;5.95;;
81908;SDS011;71372;43.514;1.512;2024-01-11T10:09:22;12.35;;;6.93;;
81908;SDS011;71372;43.514;1.512;2024-01-11T10:11:48;14.23;;;7.88;;
81908;SDS011;71372;43.514;1.512;2024-01-11T10:14:16;13.60;;;7.10;;
81908;SDS011;71372;43.514;1.512;2024-01-11T10:16:42;14.07;;;7.57;;
81908;SDS011;71372;43.514;1.512;2024-01-11T10:19:09;14.30;;;7.72;;
81908;SDS011;71372;43.514;1.512;2024-01-11T10:21:39;14.15;;;7.07;;
81908;SDS011;71372;43.514;1.512;2024-01-11T10:24:05;13.98;;;7.53;;
81908;SDS011;71372;43.514;1.512;2024-01-11T10:26:31;11.45;;;6.30;;
81908;SDS011;71372;43.514;1.512;2024-01-11T10:29:01;11.52;;;6.20;;
81908;SDS011;71372;43.514;1.512;2024-01-11T10:31:28;14.80;;;7.03;;
81908;SDS011;71372;43.514;1.512;2024-01-11T10:33:55;11.10;;;6.15;;
81908;SDS011;71372;43.514;1.512;2024-01-11T10:36:23;11.00;;;6.65;;
81908;SDS011;71372;43.514;1.512;2024-01-11T10:38:49;13.75;;;7.05;;
81908;SDS011;71372;43.514;1.512;2024-01-11T10:41:17;12.93;;;6.30;;
81908;SDS011;71372;43.514;1.512;2024-01-11T10:43:45;14.50;;;8.00;;
81908;SDS011;71372;43.514;1.512;2024-01-11T10:46:13;10.85;;;6.22;;
81908;SDS011;71372;43.514;1.512;2024-01-11T10:48:43;11.43;;;6.68;;
81908;SDS011;71372;43.514;1.512;2024-01-11T10:51:09;13.90;;;7.03;;
81908;SDS011;71372;43.514;1.512;2024-01-11T10:53:44;13.10;;;7.30;;
81908;SDS011;71372;43.514;1.512;2024-01-11T10:56:11;13.85;;;6.93;;
81908;SDS011;71372;43.514;1.512;2024-01-11T10:58:41;13.10;;;7.07;;
81908;SDS011;71372;43.514;1.512;2024-01-11T11:01:08;14.63;;;7.15;;
81908;SDS011;71372;43.514;1.512;2024-01-11T11:03:37;12.15;;;6.70;;
81908;SDS011;71372;43.514;1.512;2024-01-11T11:06:05;11.55;;;6.72;;
81908;SDS011;71372;43.514;1.512;2024-01-11T11:08:33;15.10;;;7.53;;
81908;SDS011;71372;43.514;1.512;2024-01-11T11:11:00;12.90;;;7.85;;
81908;SDS011;71372;43.514;1.512;2024-01-11T11:13:30;13.70;;;7.82;;
81908;SDS011;71372;43.514;1.512;2024-01-11T11:15:57;13.85;;;7.90;;
81908;SDS011;71372;43.514;1.512;2024-01-11T11:18:23;13.57;;;7.72;;
81908;SDS011;71372;43.514;1.512;2024-01-11T11:20:50;14.02;;;7.35;;
81908;SDS011;71372;43.514;1.512;2024-01-11T11:23:17;11.40;;;7.10;;
81908;SDS011;71372;43.514;1.512;2024-01-11T11:25:45;14.13;;;7.35;;
81908;SDS011;71372;43.514;1.512;2024-01-11T11:28:12;13.65;;;7.20;;
81908;SDS011;71372;43.514;1.512;2024-01-11T11:30:40;12.43;;;6.68;;
81908;SDS011;71372;43.514;1.512;2024-01-11T11:33:08;12.27;;;6.60;;
81908;SDS011;71372;43.514;1.512;2024-01-11T11:35:42;14.32;;;7.75;;
81908;SDS011;71372;43.514;1.512;2024-01-11T11:38:08;11.52;;;6.80;;
81908;SDS011;71372;43.514;1.512;2024-01-11T11:40:42;11.02;;;6.47;;
81908;SDS011;71372;43.514;1.512;2024-01-11T11:43:10;11.35;;;7.15;;
81908;SDS011;71372;43.514;1.512;2024-01-11T11:45:37;12.55;;;6.93;;
81908;SDS011;71372;43.514;1.512;2024-01-11T11:48:49;12.35;;;7.05;;
81908;SDS011;71372;43.514;1.512;2024-01-11T11:53:41;11.57;;;7.32;;
81908;SDS011;71372;43.514;1.512;2024-01-11T11:56:09;13.82;;;7.60;;
81908;SDS011;71372;43.514;1.512;2024-01-11T11:58:36;12.82;;;7.60;;
81908;SDS011;71372;43.514;1.512;2024-01-11T12:01:03;14.48;;;7.82;;
81908;SDS011;71372;43.514;1.512;2024-01-11T12:05:57;13.25;;;7.43;;
81908;SDS011;71372;43.514;1.512;2024-01-11T12:08:24;13.93;;;8.18;;
81908;SDS011;71372;43.514;1.512;2024-01-11T12:10:51;16.25;;;9.48;;
81908;SDS011;71372;43.514;1.512;2024-01-11T12:13:17;15.07;;;9.40;;
81908;SDS011;71372;43.514;1.512;2024-01-11T12:15:44;15.60;;;8.82;;
81908;SDS011;71372;43.514;1.512;2024-01-11T12:18:10;17.23;;;8.98;;
81908;SDS011;71372;43.514;1.512;2024-01-11T12:20:36;18.20;;;8.88;;
81908;SDS011;71372;43.514;1.512;2024-01-11T12:23:02;11.95;;;7.25;;
81908;SDS011;71372;43.514;1.512;2024-01-11T12:25:28;16.33;;;9.32;;
81908;SDS011;71372;43.514;1.512;2024-01-11T12:27:55;17.27;;;9.55;;
81908;SDS011;71372;43.514;1.512;2024-01-11T12:30:25;17.95;;;9.02;;
81908;SDS011;71372;43.514;1.512;2024-01-11T12:32:52;17.90;;;9.80;;
81908;SDS011;71372;43.514;1.512;2024-01-11T12:35:19;19.83;;;10.68;;
81908;SDS011;71372;43.514;1.512;2024-01-11T12:38:04;21.05;;;10.88;;
81908;SDS011;71372;43.514;1.512;2024-01-11T12:40:34;19.77;;;9.63;;
81908;SDS011;71372;43.514;1.512;2024-01-11T12:43:05;21.00;;;10.93;;
81908;SDS011;71372;43.514;1.512;2024-01-11T12:45:33;17.58;;;8.90;;
81908;SDS011;71372;43.514;1.512;2024-01-11T12:48:00;15.80;;;8.52;;
81908;SDS011;71372;43.514;1.512;2024-01-11T12:50:29;16.90;;;10.35;;
81908;SDS011;71372;43.514;1.512;2024-01-11T12:53:08;14.23;;;7.10;;
81908;SDS011;71372;43.514;1.512;2024-01-11T12:56:01;16.25;;;8.25;;
81908;SDS011;71372;43.514;1.512;2024-01-11T12:58:29;13.05;;;6.57;;
81908;SDS011;71372;43.514;1.512;2024-01-11T13:00:55;18.10;;;9.82;;
81908;SDS011;71372;43.514;1.512;2024-01-11T13:03:21;17.45;;;9.20;;
81908;SDS011;71372;43.514;1.512;2024-01-11T13:05:47;18.50;;;8.30;;
81908;SDS011;71372;43.514;1.512;2024-01-11T13:08:13;19.75;;;10.07;;
81908;SDS011;71372;43.514;1.512;2024-01-11T13:10:39;17.33;;;9.43;;
81908;SDS011;71372;43.514;1.512;2024-01-11T13:13:05;16.42;;;9.30;;
81908;SDS011;71372;43.514;1.512;2024-01-11T13:15:31;18.35;;;9.02;;
81908;SDS011;71372;43.514;1.512;2024-01-11T13:17:58;17.90;;;9.15;;
81908;SDS011;71372;43.514;1.512;2024-01-11T13:20:25;16.77;;;8.88;;
81908;SDS011;71372;43.514;1.512;2024-01-11T13:23:00;18.83;;;10.40;;
81908;SDS011;71372;43.514;1.512;2024-01-11T13:28:08;18.25;;;9.07;;
81908;SDS011;71372;43.514;1.512;2024-01-11T13:30:37;19.20;;;8.95;;
81908;SDS011;71372;43.514;1.512;2024-01-11T13:33:05;18.25;;;10.00;;
81908;SDS011;71372;43.514;1.512;2024-01-11T13:35:31;15.07;;;8.13;;
81908;SDS011;71372;43.514;1.512;2024-01-11T13:37:57;14.48;;;8.68;;
81908;SDS011;71372;43.514;1.512;2024-01-11T13:40:23;17.30;;;9.43;;
81908;SDS011;71372;43.514;1.512;2024-01-11T13:42:49;15.93;;;9.23;;
81908;SDS011;71372;43.514;1.512;2024-01-11T13:45:16;17.08;;;9.40;;
81908;SDS011;71372;43.514;1.512;2024-01-11T13:47:42;16.92;;;9.32;;
81908;SDS011;71372;43.514;1.512;2024-01-11T13:50:08;16.73;;;9.10;;
81908;SDS011;71372;43.514;1.512;2024-01-11T13:52:34;18.00;;;10.20;;
81908;SDS011;71372;43.514;1.512;2024-01-11T13:55:00;18.42;;;9.90;;
81908;SDS011;71372;43.514;1.512;2024-01-11T13:57:26;18.13;;;9.15;;
81908;SDS011;71372;43.514;1.512;2024-01-11T13:59:52;18.08;;;9.25;;
81908;SDS011;71372;43.514;1.512;2024-01-11T14:02:17;17.85;;;10.52;;
81908;SDS011;71372;43.514;1.512;2024-01-11T14:04:43;17.73;;;9.82;;
81908;SDS011;71372;43.514;1.512;2024-01-11T14:07:09;16.58;;;9.27;;
81908;SDS011;71372;43.514;1.512;2024-01-11T14:09:35;19.45;;;9.30;;
81908;SDS011;71372;43.514;1.512;2024-01-11T14:12:01;18.85;;;9.65;;
81908;SDS011;71372;43.514;1.512;2024-01-11T14:14:27;18.48;;;10.15;;
81908;SDS011;71372;43.514;1.512;2024-01-11T14:16:53;16.77;;;8.95;;
81908;SDS011;71372;43.514;1.512;2024-01-11T14:19:19;16.48;;;9.07;;
81908;SDS011;71372;43.514;1.512;2024-01-11T14:21:45;17.00;;;9.40;;
81908;SDS011;71372;43.514;1.512;2024-01-11T14:24:11;17.73;;;9.57;;
81908;SDS011;71372;43.514;1.512;2024-01-11T14:26:37;18.38;;;9.63;;
81908;SDS011;71372;43.514;1.512;2024-01-11T14:29:03;20.00;;;9.95;;
81908;SDS011;71372;43.514;1.512;2024-01-11T14:31:30;17.95;;;9.25;;